sensor_id;sensor_type;location;lat;lon;timestamp;temperature;humidity
23738;DHT22;12049;51.068;3.688;2022-12-20T00:02:02;11.40;99.90
23738;DHT22;12049;51.068;3.688;2022-12-20T00:04:28;11.50;99.90
23738;DHT22;12049;51.068;3.688;2022-12-20T00:06:54;11.40;99.90
23738;DHT22;12049;51.068;3.688;2022-12-20T00:09:20;11.40;99.90
23738;DHT22;12049;51.068;3.688;2022-12-20T00:11:46;11.30;99.90
23738;DHT22;12049;51.068;3.688;2022-12-20T00:14:11;11.20;99.90
23738;DHT22;12049;51.068;3.688;2022-12-20T00:16:37;11.00;99.90
23738;DHT22;12049;51.068;3.688;2022-12-20T00:19:05;10.90;99.90
23738;DHT22;12049;51.068;3.688;2022-12-20T00:21:33;10.90;99.90
23738;DHT22;12049;51.068;3.688;2022-12-20T00:23:59;10.80;99.90
23738;DHT22;12049;51.068;3.688;2022-12-20T00:26:28;10.70;99.90
23738;DHT22;12049;51.068;3.688;2022-12-20T00:28:54;10.60;99.90
23738;DHT22;12049;51.068;3.688;2022-12-20T00:31:21;10.70;99.90
23738;DHT22;12049;51.068;3.688;2022-12-20T00:33:49;10.50;99.90
23738;DHT22;12049;51.068;3.688;2022-12-20T00:36:16;10.50;99.90
23738;DHT22;12049;51.068;3.688;2022-12-20T00:38:47;10.60;99.90
23738;DHT22;12049;51.068;3.688;2022-12-20T00:41:15;10.70;99.90
23738;DHT22;12049;51.068;3.688;2022-12-20T00:43:41;10.50;99.90
23738;DHT22;12049;51.068;3.688;2022-12-20T00:46:09;10.40;99.90
23738;DHT22;12049;51.068;3.688;2022-12-20T00:48:35;10.40;99.90
23738;DHT22;12049;51.068;3.688;2022-12-20T00:51:03;10.50;99.90
23738;DHT22;12049;51.068;3.688;2022-12-20T00:53:30;10.40;99.90
23738;DHT22;12049;51.068;3.688;2022-12-20T00:55:56;10.40;99.90
23738;DHT22;12049;51.068;3.688;2022-12-20T00:58:22;10.30;99.90
23738;DHT22;12049;51.068;3.688;2022-12-20T01:00:48;10.50;99.90
23738;DHT22;12049;51.068;3.688;2022-12-20T01:03:14;10.40;99.90
23738;DHT22;12049;51.068;3.688;2022-12-20T01:05:52;10.40;99.90
23738;DHT22;12049;51.068;3.688;2022-12-20T01:08:18;10.40;99.90
23738;DHT22;12049;51.068;3.688;2022-12-20T01:10:44;10.50;99.90
23738;DHT22;12049;51.068;3.688;2022-12-20T01:13:10;10.50;99.90
23738;DHT22;12049;51.068;3.688;2022-12-20T01:15:35;10.40;99.90
23738;DHT22;12049;51.068;3.688;2022-12-20T01:18:01;10.30;99.90
23738;DHT22;12049;51.068;3.688;2022-12-20T01:20:27;10.40;99.90
23738;DHT22;12049;51.068;3.688;2022-12-20T01:22:52;10.20;99.90
23738;DHT22;12049;51.068;3.688;2022-12-20T01:25:18;10.30;99.90
23738;DHT22;12049;51.068;3.688;2022-12-20T01:27:43;10.40;99.90
23738;DHT22;12049;51.068;3.688;2022-12-20T01:30:10;10.50;99.90
23738;DHT22;12049;51.068;3.688;2022-12-20T01:32:36;10.40;99.90
23738;DHT22;12049;51.068;3.688;2022-12-20T01:35:02;10.40;99.90
23738;DHT22;12049;51.068;3.688;2022-12-20T01:37:27;10.50;99.90
23738;DHT22;12049;51.068;3.688;2022-12-20T01:39:53;10.50;99.90
23738;DHT22;12049;51.068;3.688;2022-12-20T01:42:19;10.60;99.90
23738;DHT22;12049;51.068;3.688;2022-12-20T01:47:11;10.40;99.90
23738;DHT22;12049;51.068;3.688;2022-12-20T01:49:41;10.40;99.90
23738;DHT22;12049;51.068;3.688;2022-12-20T01:52:13;10.40;99.90
23738;DHT22;12049;51.068;3.688;2022-12-20T01:54:50;10.30;99.90
23738;DHT22;12049;51.068;3.688;2022-12-20T01:57:23;10.30;99.90
23738;DHT22;12049;51.068;3.688;2022-12-20T01:59:51;10.40;99.90
23738;DHT22;12049;51.068;3.688;2022-12-20T02:02:18;10.40;99.90
23738;DHT22;12049;51.068;3.688;2022-12-20T02:04:44;10.30;99.90
23738;DHT22;12049;51.068;3.688;2022-12-20T02:07:12;10.50;99.90
23738;DHT22;12049;51.068;3.688;2022-12-20T02:09:42;10.50;99.90
23738;DHT22;12049;51.068;3.688;2022-12-20T02:12:11;10.60;99.90
23738;DHT22;12049;51.068;3.688;2022-12-20T02:26:02;10.70;99.90
23738;DHT22;12049;51.068;3.688;2022-12-20T02:31:12;10.80;99.90
23738;DHT22;12049;51.068;3.688;2022-12-20T02:33:46;10.90;99.90
23738;DHT22;12049;51.068;3.688;2022-12-20T02:36:18;10.90;99.90
23738;DHT22;12049;51.068;3.688;2022-12-20T02:38:43;10.90;99.90
23738;DHT22;12049;51.068;3.688;2022-12-20T02:41:29;10.80;99.90
23738;DHT22;12049;51.068;3.688;2022-12-20T02:44:01;10.90;99.90
23738;DHT22;12049;51.068;3.688;2022-12-20T02:46:46;10.90;99.90
23738;DHT22;12049;51.068;3.688;2022-12-20T02:49:16;10.90;99.90
23738;DHT22;12049;51.068;3.688;2022-12-20T02:51:46;10.80;99.90
23738;DHT22;12049;51.068;3.688;2022-12-20T02:54:12;10.70;99.90
23738;DHT22;12049;51.068;3.688;2022-12-20T02:56:50;10.70;99.90
23738;DHT22;12049;51.068;3.688;2022-12-20T02:59:21;10.80;99.90
23738;DHT22;12049;51.068;3.688;2022-12-20T03:01:51;11.00;99.90
23738;DHT22;12049;51.068;3.688;2022-12-20T03:04:19;11.20;99.90
23738;DHT22;12049;51.068;3.688;2022-12-20T03:07:12;11.30;99.90
23738;DHT22;12049;51.068;3.688;2022-12-20T03:09:40;11.20;99.90
23738;DHT22;12049;51.068;3.688;2022-12-20T03:12:06;11.10;99.90
23738;DHT22;12049;51.068;3.688;2022-12-20T03:14:32;10.90;99.90
23738;DHT22;12049;51.068;3.688;2022-12-20T03:16:58;10.90;99.90
23738;DHT22;12049;51.068;3.688;2022-12-20T03:19:24;11.00;99.90
23738;DHT22;12049;51.068;3.688;2022-12-20T03:21:50;11.20;99.90
23738;DHT22;12049;51.068;3.688;2022-12-20T03:24:16;11.30;99.90
23738;DHT22;12049;51.068;3.688;2022-12-20T03:26:42;11.20;99.90
23738;DHT22;12049;51.068;3.688;2022-12-20T03:29:08;11.10;99.90
23738;DHT22;12049;51.068;3.688;2022-12-20T03:31:34;11.00;99.90
23738;DHT22;12049;51.068;3.688;2022-12-20T03:34:00;11.10;99.90
23738;DHT22;12049;51.068;3.688;2022-12-20T03:36:26;11.10;99.90
23738;DHT22;12049;51.068;3.688;2022-12-20T03:38:52;11.00;99.90
23738;DHT22;12049;51.068;3.688;2022-12-20T03:41:19;11.00;99.90
23738;DHT22;12049;51.068;3.688;2022-12-20T03:43:49;11.00;99.90
23738;DHT22;12049;51.068;3.688;2022-12-20T03:46:15;10.90;99.90
23738;DHT22;12049;51.068;3.688;2022-12-20T03:48:41;10.80;99.90
23738;DHT22;12049;51.068;3.688;2022-12-20T03:51:07;10.90;99.90
23738;DHT22;12049;51.068;3.688;2022-12-20T03:53:32;10.80;99.90
23738;DHT22;12049;51.068;3.688;2022-12-20T03:55:58;11.00;99.90
23738;DHT22;12049;51.068;3.688;2022-12-20T03:58:24;11.00;99.90
23738;DHT22;12049;51.068;3.688;2022-12-20T04:00:50;11.00;99.90
23738;DHT22;12049;51.068;3.688;2022-12-20T04:03:16;11.00;99.90
23738;DHT22;12049;51.068;3.688;2022-12-20T04:05:41;10.90;99.90
23738;DHT22;12049;51.068;3.688;2022-12-20T04:08:07;11.00;99.90
23738;DHT22;12049;51.068;3.688;2022-12-20T04:10:33;11.10;99.90
23738;DHT22;12049;51.068;3.688;2022-12-20T04:13:18;11.10;99.90
23738;DHT22;12049;51.068;3.688;2022-12-20T04:15:44;11.10;99.90
23738;DHT22;12049;51.068;3.688;2022-12-20T04:18:10;11.10;99.90
23738;DHT22;12049;51.068;3.688;2022-12-20T04:20:35;11.30;99.90
23738;DHT22;12049;51.068;3.688;2022-12-20T04:23:01;11.40;99.90
23738;DHT22;12049;51.068;3.688;2022-12-20T04:25:26;11.30;99.90
23738;DHT22;12049;51.068;3.688;2022-12-20T04:27:52;11.30;99.90
23738;DHT22;12049;51.068;3.688;2022-12-20T04:30:18;11.30;99.90
23738;DHT22;12049;51.068;3.688;2022-12-20T04:32:43;11.40;99.90
23738;DHT22;12049;51.068;3.688;2022-12-20T04:35:09;11.40;99.90
23738;DHT22;12049;51.068;3.688;2022-12-20T04:37:35;11.40;99.90
23738;DHT22;12049;51.068;3.688;2022-12-20T04:40:00;11.60;99.90
23738;DHT22;12049;51.068;3.688;2022-12-20T04:42:26;11.50;99.90
23738;DHT22;12049;51.068;3.688;2022-12-20T04:44:52;11.50;99.90
23738;DHT22;12049;51.068;3.688;2022-12-20T04:47:17;11.40;99.90
23738;DHT22;12049;51.068;3.688;2022-12-20T04:49:43;11.40;99.90
23738;DHT22;12049;51.068;3.688;2022-12-20T04:52:08;11.40;99.90
23738;DHT22;12049;51.068;3.688;2022-12-20T04:54:52;11.40;99.90
23738;DHT22;12049;51.068;3.688;2022-12-20T04:57:18;11.60;99.90
23738;DHT22;12049;51.068;3.688;2022-12-20T04:59:44;11.60;99.90
23738;DHT22;12049;51.068;3.688;2022-12-20T05:02:09;11.50;99.90
23738;DHT22;12049;51.068;3.688;2022-12-20T05:04:35;11.60;99.90
23738;DHT22;12049;51.068;3.688;2022-12-20T05:07:00;11.70;99.90
23738;DHT22;12049;51.068;3.688;2022-12-20T05:09:26;11.70;99.90
23738;DHT22;12049;51.068;3.688;2022-12-20T05:11:52;11.80;99.90
23738;DHT22;12049;51.068;3.688;2022-12-20T05:14:17;11.90;99.90
23738;DHT22;12049;51.068;3.688;2022-12-20T05:16:43;11.90;99.90
23738;DHT22;12049;51.068;3.688;2022-12-20T05:19:09;11.90;99.90
23738;DHT22;12049;51.068;3.688;2022-12-20T05:21:34;11.80;99.90
23738;DHT22;12049;51.068;3.688;2022-12-20T05:24:19;11.90;99.90
23738;DHT22;12049;51.068;3.688;2022-12-20T05:27:03;11.80;99.90
23738;DHT22;12049;51.068;3.688;2022-12-20T05:29:28;11.80;99.90
23738;DHT22;12049;51.068;3.688;2022-12-20T05:31:54;11.70;99.90
23738;DHT22;12049;51.068;3.688;2022-12-20T05:34:20;11.70;99.90
23738;DHT22;12049;51.068;3.688;2022-12-20T05:36:45;11.70;99.90
23738;DHT22;12049;51.068;3.688;2022-12-20T05:39:11;11.50;99.90
23738;DHT22;12049;51.068;3.688;2022-12-20T05:41:37;11.60;99.90
23738;DHT22;12049;51.068;3.688;2022-12-20T05:44:03;11.80;99.90
23738;DHT22;12049;51.068;3.688;2022-12-20T05:46:29;11.80;99.90
23738;DHT22;12049;51.068;3.688;2022-12-20T05:48:55;11.90;99.90
23738;DHT22;12049;51.068;3.688;2022-12-20T05:51:20;11.80;99.90
23738;DHT22;12049;51.068;3.688;2022-12-20T05:53:46;11.90;99.90
23738;DHT22;12049;51.068;3.688;2022-12-20T05:56:12;11.80;99.90
23738;DHT22;12049;51.068;3.688;2022-12-20T05:58:37;11.70;99.90
23738;DHT22;12049;51.068;3.688;2022-12-20T06:01:05;11.80;99.90
23738;DHT22;12049;51.068;3.688;2022-12-20T06:03:31;12.00;99.90
23738;DHT22;12049;51.068;3.688;2022-12-20T06:05:57;12.10;99.90
23738;DHT22;12049;51.068;3.688;2022-12-20T06:08:23;11.90;99.90
23738;DHT22;12049;51.068;3.688;2022-12-20T06:10:49;11.80;99.90
23738;DHT22;12049;51.068;3.688;2022-12-20T06:13:15;11.90;99.90
23738;DHT22;12049;51.068;3.688;2022-12-20T06:15:41;12.10;99.90
23738;DHT22;12049;51.068;3.688;2022-12-20T06:18:07;12.00;99.90
23738;DHT22;12049;51.068;3.688;2022-12-20T06:20:34;11.90;99.90
23738;DHT22;12049;51.068;3.688;2022-12-20T06:23:00;11.80;99.90
23738;DHT22;12049;51.068;3.688;2022-12-20T06:25:27;11.80;99.90
23738;DHT22;12049;51.068;3.688;2022-12-20T06:27:52;11.80;99.90
23738;DHT22;12049;51.068;3.688;2022-12-20T06:30:19;12.00;99.90
23738;DHT22;12049;51.068;3.688;2022-12-20T06:32:45;11.90;99.90
23738;DHT22;12049;51.068;3.688;2022-12-20T06:35:11;11.90;99.90
23738;DHT22;12049;51.068;3.688;2022-12-20T06:37:37;11.90;99.90
23738;DHT22;12049;51.068;3.688;2022-12-20T06:40:06;11.90;99.90
23738;DHT22;12049;51.068;3.688;2022-12-20T06:42:32;11.90;99.90
23738;DHT22;12049;51.068;3.688;2022-12-20T06:44:58;11.70;99.90
23738;DHT22;12049;51.068;3.688;2022-12-20T06:47:23;11.70;99.90
23738;DHT22;12049;51.068;3.688;2022-12-20T06:49:49;11.60;99.90
23738;DHT22;12049;51.068;3.688;2022-12-20T06:52:14;11.60;99.90
23738;DHT22;12049;51.068;3.688;2022-12-20T06:54:40;11.50;99.90
23738;DHT22;12049;51.068;3.688;2022-12-20T06:57:06;11.40;99.90
23738;DHT22;12049;51.068;3.688;2022-12-20T06:59:31;11.40;99.90
23738;DHT22;12049;51.068;3.688;2022-12-20T07:01:57;11.60;99.90
23738;DHT22;12049;51.068;3.688;2022-12-20T07:04:23;11.70;99.90
23738;DHT22;12049;51.068;3.688;2022-12-20T07:06:48;11.80;99.90
23738;DHT22;12049;51.068;3.688;2022-12-20T07:09:15;11.80;99.90
23738;DHT22;12049;51.068;3.688;2022-12-20T07:11:40;11.60;99.90
23738;DHT22;12049;51.068;3.688;2022-12-20T07:14:07;11.40;99.90
23738;DHT22;12049;51.068;3.688;2022-12-20T07:16:33;11.40;99.90
23738;DHT22;12049;51.068;3.688;2022-12-20T07:19:00;11.50;99.90
23738;DHT22;12049;51.068;3.688;2022-12-20T07:21:26;11.60;99.90
23738;DHT22;12049;51.068;3.688;2022-12-20T07:23:54;11.50;99.90
23738;DHT22;12049;51.068;3.688;2022-12-20T07:26:19;11.50;99.90
23738;DHT22;12049;51.068;3.688;2022-12-20T07:28:45;11.40;99.90
23738;DHT22;12049;51.068;3.688;2022-12-20T07:31:10;11.20;99.90
23738;DHT22;12049;51.068;3.688;2022-12-20T07:33:36;11.10;99.90
23738;DHT22;12049;51.068;3.688;2022-12-20T07:36:11;11.00;99.90
23738;DHT22;12049;51.068;3.688;2022-12-20T07:38:37;11.10;99.90
23738;DHT22;12049;51.068;3.688;2022-12-20T07:41:11;11.10;99.90
23738;DHT22;12049;51.068;3.688;2022-12-20T07:43:37;10.90;99.90
